sensor_id;sensor_type;location;lat;lon;timestamp;pressure;altitude;pressure_sealevel;temperature;humidity
39954;BME280;25631;51.516;-0.470;2023-03-20T00:01:55;101607.33;;;7.31;36.01
39954;BME280;25631;51.516;-0.470;2023-03-20T00:04:32;101610.43;;;7.48;36.05
39954;BME280;25631;51.516;-0.470;2023-03-20T00:07:08;101607.35;;;7.48;36.07
39954;BME280;25631;51.516;-0.470;2023-03-20T00:09:45;101608.30;;;7.43;36.09
39954;BME280;25631;51.516;-0.470;2023-03-20T00:12:23;101605.23;;;7.52;36.21
39954;BME280;25631;51.516;-0.470;2023-03-20T00:15:02;101608.06;;;7.35;36.35
39954;BME280;25631;51.516;-0.470;2023-03-20T00:17:39;101610.71;;;7.35;36.38
39954;BME280;25631;51.516;-0.470;2023-03-20T00:20:16;101610.63;;;7.40;36.38
39954;BME280;25631;51.516;-0.470;2023-03-20T00:22:53;101610.46;;;7.47;36.43
39954;BME280;25631;51.516;-0.470;2023-03-20T00:25:29;101609.13;;;7.56;36.46
39954;BME280;25631;51.516;-0.470;2023-03-20T00:28:28;101608.67;;;7.44;36.42
39954;BME280;25631;51.516;-0.470;2023-03-20T00:31:14;101611.20;;;7.55;36.47
39954;BME280;25631;51.516;-0.470;2023-03-20T00:33:55;101607.24;;;7.93;36.53
39954;BME280;25631;51.516;-0.470;2023-03-20T00:36:32;101606.45;;;7.85;36.78
39954;BME280;25631;51.516;-0.470;2023-03-20T00:39:09;101605.40;;;7.44;37.12
39954;BME280;25631;51.516;-0.470;2023-03-20T00:41:49;101604.61;;;7.57;37.22
39954;BME280;25631;51.516;-0.470;2023-03-20T00:44:31;101609.42;;;7.79;37.41
39954;BME280;25631;51.516;-0.470;2023-03-20T00:47:12;101607.78;;;7.65;37.49
39954;BME280;25631;51.516;-0.470;2023-03-20T00:49:53;101616.28;;;7.67;37.66
39954;BME280;25631;51.516;-0.470;2023-03-20T00:52:29;101616.87;;;7.61;38.02
39954;BME280;25631;51.516;-0.470;2023-03-20T00:55:07;101615.56;;;7.58;38.31
39954;BME280;25631;51.516;-0.470;2023-03-20T00:57:46;101613.90;;;7.52;38.25
39954;BME280;25631;51.516;-0.470;2023-03-20T01:00:31;101612.87;;;7.29;38.53
39954;BME280;25631;51.516;-0.470;2023-03-20T01:03:14;101610.13;;;7.19;38.64
39954;BME280;25631;51.516;-0.470;2023-03-20T01:05:50;101608.58;;;7.23;38.79
39954;BME280;25631;51.516;-0.470;2023-03-20T01:08:27;101611.28;;;7.21;39.02
39954;BME280;25631;51.516;-0.470;2023-03-20T01:11:04;101610.30;;;7.27;39.35
39954;BME280;25631;51.516;-0.470;2023-03-20T01:13:40;101609.40;;;7.31;39.36
39954;BME280;25631;51.516;-0.470;2023-03-20T01:16:20;101605.29;;;6.94;39.47
39954;BME280;25631;51.516;-0.470;2023-03-20T01:18:57;101602.98;;;7.31;39.52
39954;BME280;25631;51.516;-0.470;2023-03-20T01:21:33;101600.67;;;7.07;39.71
39954;BME280;25631;51.516;-0.470;2023-03-20T01:24:10;101602.36;;;7.09;39.78
39954;BME280;25631;51.516;-0.470;2023-03-20T01:26:46;101600.94;;;6.95;39.82
39954;BME280;25631;51.516;-0.470;2023-03-20T01:29:24;101600.79;;;6.94;39.93
39954;BME280;25631;51.516;-0.470;2023-03-20T01:32:01;101602.82;;;7.17;39.92
39954;BME280;25631;51.516;-0.470;2023-03-20T01:34:37;101599.25;;;7.17;39.97
39954;BME280;25631;51.516;-0.470;2023-03-20T01:37:17;101601.54;;;6.96;40.03
39954;BME280;25631;51.516;-0.470;2023-03-20T01:39:56;101604.13;;;6.72;40.20
39954;BME280;25631;51.516;-0.470;2023-03-20T01:42:32;101601.80;;;7.06;40.03
39954;BME280;25631;51.516;-0.470;2023-03-20T01:45:14;101599.18;;;6.97;40.21
39954;BME280;25631;51.516;-0.470;2023-03-20T01:47:52;101597.61;;;7.01;40.13
39954;BME280;25631;51.516;-0.470;2023-03-20T01:50:30;101602.12;;;6.81;40.21
39954;BME280;25631;51.516;-0.470;2023-03-20T01:53:11;101595.45;;;6.89;40.38
39954;BME280;25631;51.516;-0.470;2023-03-20T01:55:51;101595.39;;;6.81;40.46
39954;BME280;25631;51.516;-0.470;2023-03-20T01:58:34;101592.54;;;6.92;40.35
39954;BME280;25631;51.516;-0.470;2023-03-20T02:01:13;101589.06;;;6.98;40.27
39954;BME280;25631;51.516;-0.470;2023-03-20T02:03:50;101587.53;;;7.10;40.31
39954;BME280;25631;51.516;-0.470;2023-03-20T02:06:27;101585.55;;;7.01;40.18
39954;BME280;25631;51.516;-0.470;2023-03-20T02:09:03;101581.76;;;7.04;40.18
39954;BME280;25631;51.516;-0.470;2023-03-20T02:11:41;101577.29;;;6.97;40.16
39954;BME280;25631;51.516;-0.470;2023-03-20T02:14:19;101567.44;;;7.15;40.18
39954;BME280;25631;51.516;-0.470;2023-03-20T02:16:56;101558.40;;;7.03;40.24
39954;BME280;25631;51.516;-0.470;2023-03-20T02:19:38;101555.74;;;7.05;40.24
39954;BME280;25631;51.516;-0.470;2023-03-20T02:22:46;101550.09;;;7.13;40.26
39954;BME280;25631;51.516;-0.470;2023-03-20T02:26:42;101544.77;;;7.05;40.30
39954;BME280;25631;51.516;-0.470;2023-03-20T02:31:57;101532.95;;;6.85;40.45
39954;BME280;25631;51.516;-0.470;2023-03-20T02:36:14;101528.86;;;7.15;40.37
39954;BME280;25631;51.516;-0.470;2023-03-20T02:39:14;101527.35;;;7.04;40.45
39954;BME280;25631;51.516;-0.470;2023-03-20T02:41:59;101519.35;;;6.78;40.56
39954;BME280;25631;51.516;-0.470;2023-03-20T02:44:44;101516.82;;;6.71;40.59
39954;BME280;25631;51.516;-0.470;2023-03-20T02:47:26;101512.56;;;6.85;40.58
39954;BME280;25631;51.516;-0.470;2023-03-20T02:50:12;101510.61;;;6.81;40.62
39954;BME280;25631;51.516;-0.470;2023-03-20T02:53:03;101511.94;;;6.94;40.81
39954;BME280;25631;51.516;-0.470;2023-03-20T02:55:49;101511.19;;;7.01;40.85
39954;BME280;25631;51.516;-0.470;2023-03-20T02:58:33;101506.62;;;6.88;40.95
39954;BME280;25631;51.516;-0.470;2023-03-20T03:01:15;101511.54;;;7.28;41.02
39954;BME280;25631;51.516;-0.470;2023-03-20T03:03:55;101511.60;;;7.01;40.94
39954;BME280;25631;51.516;-0.470;2023-03-20T03:06:35;101509.23;;;6.83;40.97
39954;BME280;25631;51.516;-0.470;2023-03-20T03:09:17;101503.55;;;7.14;41.15
39954;BME280;25631;51.516;-0.470;2023-03-20T03:11:58;101501.91;;;7.11;41.22
39954;BME280;25631;51.516;-0.470;2023-03-20T03:14:39;101500.72;;;6.96;41.34
39954;BME280;25631;51.516;-0.470;2023-03-20T03:17:18;101493.85;;;6.84;41.25
39954;BME280;25631;51.516;-0.470;2023-03-20T03:19:58;101494.00;;;6.95;41.25
39954;BME280;25631;51.516;-0.470;2023-03-20T03:22:37;101492.63;;;7.15;41.39
39954;BME280;25631;51.516;-0.470;2023-03-20T03:25:14;101487.72;;;7.05;41.72
39954;BME280;25631;51.516;-0.470;2023-03-20T03:27:55;101487.23;;;6.98;41.84
39954;BME280;25631;51.516;-0.470;2023-03-20T03:30:37;101488.42;;;6.67;41.78
39954;BME280;25631;51.516;-0.470;2023-03-20T03:33:19;101491.10;;;6.91;41.76
39954;BME280;25631;51.516;-0.470;2023-03-20T03:36:04;101496.58;;;6.76;41.69
39954;BME280;25631;51.516;-0.470;2023-03-20T03:38:47;101491.04;;;6.71;41.81
39954;BME280;25631;51.516;-0.470;2023-03-20T03:41:30;101487.36;;;6.75;41.73
39954;BME280;25631;51.516;-0.470;2023-03-20T03:44:14;101485.06;;;7.03;41.73
39954;BME280;25631;51.516;-0.470;2023-03-20T03:46:56;101478.54;;;6.85;41.87
39954;BME280;25631;51.516;-0.470;2023-03-20T03:49:36;101470.77;;;6.86;41.63
39954;BME280;25631;51.516;-0.470;2023-03-20T03:52:17;101481.66;;;7.13;41.65
39954;BME280;25631;51.516;-0.470;2023-03-20T03:55:00;101479.87;;;7.21;41.64
39954;BME280;25631;51.516;-0.470;2023-03-20T03:57:41;101478.30;;;6.95;41.61
39954;BME280;25631;51.516;-0.470;2023-03-20T04:00:22;101469.88;;;7.18;41.44
39954;BME280;25631;51.516;-0.470;2023-03-20T04:03:00;101466.61;;;7.05;41.48
39954;BME280;25631;51.516;-0.470;2023-03-20T04:05:39;101464.14;;;7.18;41.37
39954;BME280;25631;51.516;-0.470;2023-03-20T04:08:16;101469.29;;;7.23;41.30
39954;BME280;25631;51.516;-0.470;2023-03-20T04:10:52;101471.21;;;7.29;41.19
39954;BME280;25631;51.516;-0.470;2023-03-20T04:13:29;101469.07;;;7.16;41.12
39954;BME280;25631;51.516;-0.470;2023-03-20T04:16:09;101463.70;;;7.40;40.97
39954;BME280;25631;51.516;-0.470;2023-03-20T04:18:47;101462.55;;;7.03;40.99
39954;BME280;25631;51.516;-0.470;2023-03-20T04:21:24;101463.91;;;7.27;40.87
39954;BME280;25631;51.516;-0.470;2023-03-20T04:24:00;101466.14;;;7.17;40.77
39954;BME280;25631;51.516;-0.470;2023-03-20T04:26:37;101472.79;;;7.39;40.72
39954;BME280;25631;51.516;-0.470;2023-03-20T04:29:14;101468.62;;;7.39;40.71
39954;BME280;25631;51.516;-0.470;2023-03-20T04:31:50;101474.61;;;7.54;40.69
39954;BME280;25631;51.516;-0.470;2023-03-20T04:34:27;101475.33;;;7.11;40.83
39954;BME280;25631;51.516;-0.470;2023-03-20T04:37:04;101473.03;;;7.01;40.93
39954;BME280;25631;51.516;-0.470;2023-03-20T04:39:40;101479.71;;;7.13;40.94
39954;BME280;25631;51.516;-0.470;2023-03-20T04:42:17;101482.90;;;6.89;41.14
39954;BME280;25631;51.516;-0.470;2023-03-20T04:44:53;101478.61;;;6.83;41.33
39954;BME280;25631;51.516;-0.470;2023-03-20T04:47:30;101472.53;;;6.97;41.26
39954;BME280;25631;51.516;-0.470;2023-03-20T04:50:07;101462.22;;;6.82;41.25
39954;BME280;25631;51.516;-0.470;2023-03-20T04:52:44;101457.73;;;6.93;41.44
39954;BME280;25631;51.516;-0.470;2023-03-20T04:55:20;101446.25;;;6.95;41.39
39954;BME280;25631;51.516;-0.470;2023-03-20T04:57:57;101442.16;;;7.03;41.38
39954;BME280;25631;51.516;-0.470;2023-03-20T05:00:33;101442.72;;;6.84;41.49
39954;BME280;25631;51.516;-0.470;2023-03-20T05:03:09;101436.85;;;7.23;41.47
39954;BME280;25631;51.516;-0.470;2023-03-20T05:05:46;101438.30;;;7.09;41.64
39954;BME280;25631;51.516;-0.470;2023-03-20T05:08:22;101438.80;;;7.18;41.87
39954;BME280;25631;51.516;-0.470;2023-03-20T05:10:59;101439.84;;;7.05;41.85
39954;BME280;25631;51.516;-0.470;2023-03-20T05:13:36;101438.70;;;7.12;41.74
39954;BME280;25631;51.516;-0.470;2023-03-20T05:16:12;101438.23;;;7.10;41.96
39954;BME280;25631;51.516;-0.470;2023-03-20T05:18:49;101438.82;;;7.27;41.94
39954;BME280;25631;51.516;-0.470;2023-03-20T05:21:25;101442.39;;;7.17;42.03
39954;BME280;25631;51.516;-0.470;2023-03-20T05:24:02;101444.40;;;7.24;42.08
39954;BME280;25631;51.516;-0.470;2023-03-20T05:26:38;101444.66;;;7.19;42.21
39954;BME280;25631;51.516;-0.470;2023-03-20T05:29:15;101440.49;;;7.24;42.57
39954;BME280;25631;51.516;-0.470;2023-03-20T05:31:52;101434.27;;;7.12;42.68
39954;BME280;25631;51.516;-0.470;2023-03-20T05:34:28;101433.68;;;7.39;42.58
39954;BME280;25631;51.516;-0.470;2023-03-20T05:37:05;101434.30;;;7.35;42.65
39954;BME280;25631;51.516;-0.470;2023-03-20T05:39:41;101431.30;;;7.07;43.15
39954;BME280;25631;51.516;-0.470;2023-03-20T05:42:18;101427.92;;;7.28;43.20
39954;BME280;25631;51.516;-0.470;2023-03-20T05:44:54;101426.57;;;7.24;43.24
39954;BME280;25631;51.516;-0.470;2023-03-20T05:47:31;101428.25;;;6.99;43.86
39954;BME280;25631;51.516;-0.470;2023-03-20T05:50:08;101425.82;;;7.11;43.89
39954;BME280;25631;51.516;-0.470;2023-03-20T05:52:46;101424.73;;;7.16;44.08
39954;BME280;25631;51.516;-0.470;2023-03-20T05:55:22;101420.32;;;7.56;43.82
39954;BME280;25631;51.516;-0.470;2023-03-20T05:57:58;101419.25;;;7.10;44.26
39954;BME280;25631;51.516;-0.470;2023-03-20T06:00:35;101421.51;;;7.21;44.14
39954;BME280;25631;51.516;-0.470;2023-03-20T06:03:11;101428.21;;;7.20;44.44
39954;BME280;25631;51.516;-0.470;2023-03-20T06:05:48;101425.33;;;7.13;44.27
39954;BME280;25631;51.516;-0.470;2023-03-20T06:08:25;101431.64;;;7.19;44.47
39954;BME280;25631;51.516;-0.470;2023-03-20T06:11:01;101428.94;;;7.12;44.63
39954;BME280;25631;51.516;-0.470;2023-03-20T06:13:37;101427.86;;;7.28;44.64
39954;BME280;25631;51.516;-0.470;2023-03-20T06:16:14;101429.52;;;7.10;44.82
39954;BME280;25631;51.516;-0.470;2023-03-20T06:18:50;101436.55;;;7.19;44.72
39954;BME280;25631;51.516;-0.470;2023-03-20T06:21:27;101440.69;;;7.16;45.05
39954;BME280;25631;51.516;-0.470;2023-03-20T06:24:05;101440.99;;;7.33;45.08
39954;BME280;25631;51.516;-0.470;2023-03-20T06:26:41;101439.55;;;7.18;44.88
39954;BME280;25631;51.516;-0.470;2023-03-20T06:29:18;101444.49;;;7.12;44.90
39954;BME280;25631;51.516;-0.470;2023-03-20T06:31:54;101447.67;;;7.24;44.96
39954;BME280;25631;51.516;-0.470;2023-03-20T06:34:31;101447.87;;;7.32;45.17
39954;BME280;25631;51.516;-0.470;2023-03-20T06:37:08;101447.86;;;7.31;45.22
39954;BME280;25631;51.516;-0.470;2023-03-20T06:39:44;101457.54;;;7.14;45.59
39954;BME280;25631;51.516;-0.470;2023-03-20T06:42:21;101458.36;;;7.18;45.44
39954;BME280;25631;51.516;-0.470;2023-03-20T06:44:57;101451.58;;;7.42;45.46
39954;BME280;25631;51.516;-0.470;2023-03-20T06:47:34;101446.64;;;6.96;45.62
39954;BME280;25631;51.516;-0.470;2023-03-20T06:50:11;101448.44;;;7.30;45.50
39954;BME280;25631;51.516;-0.470;2023-03-20T06:52:47;101449.54;;;7.27;45.84
39954;BME280;25631;51.516;-0.470;2023-03-20T06:55:24;101450.00;;;7.38;45.67
39954;BME280;25631;51.516;-0.470;2023-03-20T06:58:00;101446.77;;;7.39;45.84
39954;BME280;25631;51.516;-0.470;2023-03-20T07:00:36;101451.18;;;7.25;45.54
39954;BME280;25631;51.516;-0.470;2023-03-20T07:03:13;101451.11;;;7.69;45.47
39954;BME280;25631;51.516;-0.470;2023-03-20T07:05:49;101454.17;;;7.64;45.60
39954;BME280;25631;51.516;-0.470;2023-03-20T07:08:26;101455.01;;;7.65;45.71
39954;BME280;25631;51.516;-0.470;2023-03-20T07:11:03;101453.72;;;7.42;45.78
39954;BME280;25631;51.516;-0.470;2023-03-20T07:13:39;101454.52;;;7.37;45.78
39954;BME280;25631;51.516;-0.470;2023-03-20T07:16:16;101457.68;;;7.61;45.80
39954;BME280;25631;51.516;-0.470;2023-03-20T07:18:53;101455.33;;;7.62;45.73
39954;BME280;25631;51.516;-0.470;2023-03-20T07:21:29;101455.62;;;7.61;45.67
39954;BME280;25631;51.516;-0.470;2023-03-20T07:24:06;101459.18;;;7.65;45.67
39954;BME280;25631;51.516;-0.470;2023-03-20T07:26:43;101460.74;;;7.59;45.70
39954;BME280;25631;51.516;-0.470;2023-03-20T07:29:19;101456.17;;;7.65;45.84
39954;BME280;25631;51.516;-0.470;2023-03-20T07:31:55;101450.44;;;7.87;45.96
39954;BME280;25631;51.516;-0.470;2023-03-20T07:34:32;101450.46;;;7.91;45.96
39954;BME280;25631;51.516;-0.470;2023-03-20T07:37:08;101452.04;;;7.40;46.02
39954;BME280;25631;51.516;-0.470;2023-03-20T07:39:45;101449.02;;;7.88;46.19
39954;BME280;25631;51.516;-0.470;2023-03-20T07:42:21;101450.50;;;8.03;46.05
39954;BME280;25631;51.516;-0.470;2023-03-20T07:44:58;101446.57;;;7.95;46.00
39954;BME280;25631;51.516;-0.470;2023-03-20T07:47:34;101442.17;;;7.40;46.22
39954;BME280;25631;51.516;-0.470;2023-03-20T07:50:11;101443.88;;;8.01;46.20
39954;BME280;25631;51.516;-0.470;2023-03-20T07:52:48;101442.79;;;7.87;46.48
39954;BME280;25631;51.516;-0.470;2023-03-20T07:55:25;101442.53;;;7.72;47.03
39954;BME280;25631;51.516;-0.470;2023-03-20T07:58:02;101442.94;;;7.64;46.74
39954;BME280;25631;51.516;-0.470;2023-03-20T08:00:38;101443.40;;;7.74;46.66
39954;BME280;25631;51.516;-0.470;2023-03-20T08:03:15;101445.59;;;7.58;46.77
39954;BME280;25631;51.516;-0.470;2023-03-20T08:05:53;101444.61;;;7.90;47.02
39954;BME280;25631;51.516;-0.470;2023-03-20T08:08:29;101444.18;;;8.08;47.14
39954;BME280;25631;51.516;-0.470;2023-03-20T08:11:06;101444.78;;;7.75;47.26
39954;BME280;25631;51.516;-0.470;2023-03-20T08:13:43;101442.29;;;7.76;47.40
39954;BME280;25631;51.516;-0.470;2023-03-20T08:16:19;101447.03;;;7.97;47.25
39954;BME280;25631;51.516;-0.470;2023-03-20T08:18:56;101448.34;;;8.13;47.09
39954;BME280;25631;51.516;-0.470;2023-03-20T08:21:32;101456.73;;;7.93;47.25
39954;BME280;25631;51.516;-0.470;2023-03-20T08:24:09;101453.27;;;8.12;47.05
39954;BME280;25631;51.516;-0.470;2023-03-20T08:26:46;101454.79;;;8.13;47.20
39954;BME280;25631;51.516;-0.470;2023-03-20T08:29:22;101453.85;;;8.22;47.34
39954;BME280;25631;51.516;-0.470;2023-03-20T08:31:58;101448.27;;;8.05;47.36
39954;BME280;25631;51.516;-0.470;2023-03-20T08:34:35;101440.57;;;8.57;47.25
39954;BME280;25631;51.516;-0.470;2023-03-20T08:37:11;101445.19;;;8.41;47.31
39954;BME280;25631;51.516;-0.470;2023-03-20T08:39:48;101444.98;;;8.46;47.43
39954;BME280;25631;51.516;-0.470;2023-03-20T08:42:25;101449.74;;;8.13;47.95
39954;BME280;25631;51.516;-0.470;2023-03-20T08:45:02;101452.92;;;8.35;47.96
39954;BME280;25631;51.516;-0.470;2023-03-20T08:47:38;101451.74;;;8.17;47.77
39954;BME280;25631;51.516;-0.470;2023-03-20T08:50:15;101456.29;;;8.57;47.64
39954;BME280;25631;51.516;-0.470;2023-03-20T08:52:52;101457.53;;;8.61;47.76
39954;BME280;25631;51.516;-0.470;2023-03-20T08:55:28;101460.32;;;8.53;47.96
39954;BME280;25631;51.516;-0.470;2023-03-20T08:58:05;101465.84;;;8.28;48.05
39954;BME280;25631;51.516;-0.470;2023-03-20T09:00:42;101464.37;;;8.12;48.08
39954;BME280;25631;51.516;-0.470;2023-03-20T09:03:19;101465.02;;;8.44;48.03
39954;BME280;25631;51.516;-0.470;2023-03-20T09:05:56;101461.17;;;8.72;48.04
39954;BME280;25631;51.516;-0.470;2023-03-20T09:08:33;101461.51;;;8.76;48.08
39954;BME280;25631;51.516;-0.470;2023-03-20T09:11:10;101460.12;;;8.73;48.07
39954;BME280;25631;51.516;-0.470;2023-03-20T09:13:46;101458.32;;;8.68;48.09
39954;BME280;25631;51.516;-0.470;2023-03-20T09:16:23;101456.95;;;8.64;48.02
39954;BME280;25631;51.516;-0.470;2023-03-20T09:18:59;101457.14;;;8.57;47.85
39954;BME280;25631;51.516;-0.470;2023-03-20T09:21:36;101458.74;;;8.89;47.63
39954;BME280;25631;51.516;-0.470;2023-03-20T09:24:12;101454.31;;;8.94;47.60
39954;BME280;25631;51.516;-0.470;2023-03-20T09:26:49;101458.65;;;8.88;47.51
39954;BME280;25631;51.516;-0.470;2023-03-20T09:29:25;101456.15;;;8.92;47.39
39954;BME280;25631;51.516;-0.470;2023-03-20T09:32:02;101455.57;;;8.90;47.38
39954;BME280;25631;51.516;-0.470;2023-03-20T09:34:38;101453.19;;;8.95;47.27
39954;BME280;25631;51.516;-0.470;2023-03-20T09:37:15;101447.04;;;9.09;47.00
39954;BME280;25631;51.516;-0.470;2023-03-20T09:39:51;101444.83;;;9.32;46.84
39954;BME280;25631;51.516;-0.470;2023-03-20T09:42:37;101446.91;;;9.34;46.86
39954;BME280;25631;51.516;-0.470;2023-03-20T09:45:22;101450.96;;;9.49;46.72
39954;BME280;25631;51.516;-0.470;2023-03-20T09:48:05;101452.28;;;9.01;46.85
39954;BME280;25631;51.516;-0.470;2023-03-20T09:50:50;101456.67;;;8.93;46.86
39954;BME280;25631;51.516;-0.470;2023-03-20T09:53:33;101454.52;;;9.10;46.80
39954;BME280;25631;51.516;-0.470;2023-03-20T09:56:14;101454.82;;;9.05;46.85
39954;BME280;25631;51.516;-0.470;2023-03-20T09:58:54;101454.09;;;9.13;46.78
39954;BME280;25631;51.516;-0.470;2023-03-20T10:01:39;101447.59;;;9.05;47.03
39954;BME280;25631;51.516;-0.470;2023-03-20T10:04:19;101450.39;;;9.35;46.87
39954;BME280;25631;51.516;-0.470;2023-03-20T10:06:56;101452.51;;;9.53;46.72
39954;BME280;25631;51.516;-0.470;2023-03-20T10:09:32;101453.51;;;9.78;46.32
39954;BME280;25631;51.516;-0.470;2023-03-20T10:12:21;101458.14;;;9.62;46.15
39954;BME280;25631;51.516;-0.470;2023-03-20T10:15:03;101458.92;;;9.64;46.30
39954;BME280;25631;51.516;-0.470;2023-03-20T10:17:50;101458.30;;;9.57;46.37
39954;BME280;25631;51.516;-0.470;2023-03-20T10:20:33;101456.31;;;9.57;46.42
39954;BME280;25631;51.516;-0.470;2023-03-20T10:23:17;101458.36;;;9.74;46.37
39954;BME280;25631;51.516;-0.470;2023-03-20T10:26:01;101455.95;;;9.38;46.28
39954;BME280;25631;51.516;-0.470;2023-03-20T10:28:45;101455.03;;;9.65;46.34
39954;BME280;25631;51.516;-0.470;2023-03-20T10:31:33;101458.34;;;9.79;46.36
39954;BME280;25631;51.516;-0.470;2023-03-20T10:34:26;101457.48;;;9.58;46.68
39954;BME280;25631;51.516;-0.470;2023-03-20T10:37:19;101456.34;;;9.64;46.58
39954;BME280;25631;51.516;-0.470;2023-03-20T10:40:09;101456.12;;;9.74;46.57
39954;BME280;25631;51.516;-0.470;2023-03-20T10:42:52;101459.53;;;9.64;46.62
39954;BME280;25631;51.516;-0.470;2023-03-20T10:45:37;101458.59;;;9.40;46.96
39954;BME280;25631;51.516;-0.470;2023-03-20T10:48:21;101459.62;;;9.76;46.60
39954;BME280;25631;51.516;-0.470;2023-03-20T10:51:00;101462.76;;;9.66;46.63
39954;BME280;25631;51.516;-0.470;2023-03-20T10:53:44;101463.72;;;10.07;46.46
39954;BME280;25631;51.516;-0.470;2023-03-20T10:56:27;101463.92;;;9.80;46.57
39954;BME280;25631;51.516;-0.470;2023-03-20T10:59:09;101462.67;;;9.97;46.32
39954;BME280;25631;51.516;-0.470;2023-03-20T11:01:52;101462.50;;;9.98;46.17
39954;BME280;25631;51.516;-0.470;2023-03-20T11:04:28;101461.44;;;9.59;46.36
39954;BME280;25631;51.516;-0.470;2023-03-20T11:07:14;101458.91;;;10.04;46.21
39954;BME280;25631;51.516;-0.470;2023-03-20T11:10:07;101460.19;;;10.20;45.86
39954;BME280;25631;51.516;-0.470;2023-03-20T11:12:46;101463.84;;;9.85;46.17
39954;BME280;25631;51.516;-0.470;2023-03-20T11:15:25;101464.06;;;9.66;46.28
39954;BME280;25631;51.516;-0.470;2023-03-20T11:18:04;101459.32;;;9.71;46.41
39954;BME280;25631;51.516;-0.470;2023-03-20T11:20:46;101460.13;;;9.67;46.46
39954;BME280;25631;51.516;-0.470;2023-03-20T11:23:25;101452.21;;;10.06;46.49
39954;BME280;25631;51.516;-0.470;2023-03-20T11:26:04;101449.28;;;9.91;46.50
39954;BME280;25631;51.516;-0.470;2023-03-20T11:28:42;101449.40;;;9.96;46.34
39954;BME280;25631;51.516;-0.470;2023-03-20T11:31:26;101452.67;;;9.88;46.29
39954;BME280;25631;51.516;-0.470;2023-03-20T11:34:22;101446.42;;;9.93;46.37
39954;BME280;25631;51.516;-0.470;2023-03-20T11:37:00;101445.46;;;10.11;46.55
39954;BME280;25631;51.516;-0.470;2023-03-20T11:39:52;101445.10;;;9.78;46.40
39954;BME280;25631;51.516;-0.470;2023-03-20T11:42:31;101442.55;;;9.60;46.58
39954;BME280;25631;51.516;-0.470;2023-03-20T11:45:15;101441.17;;;9.74;46.59
39954;BME280;25631;51.516;-0.470;2023-03-20T11:47:54;101441.81;;;9.94;46.37
39954;BME280;25631;51.516;-0.470;2023-03-20T11:50:34;101441.18;;;9.76;46.68
39954;BME280;25631;51.516;-0.470;2023-03-20T11:53:20;101442.61;;;10.04;46.64
39954;BME280;25631;51.516;-0.470;2023-03-20T11:56:03;101437.57;;;9.72;46.56
39954;BME280;25631;51.516;-0.470;2023-03-20T11:58:52;101439.04;;;9.81;46.40
39954;BME280;25631;51.516;-0.470;2023-03-20T12:01:38;101434.00;;;10.26;46.26
39954;BME280;25631;51.516;-0.470;2023-03-20T12:04:16;101435.06;;;10.08;46.40
39954;BME280;25631;51.516;-0.470;2023-03-20T12:06:56;101427.38;;;10.02;46.32
39954;BME280;25631;51.516;-0.470;2023-03-20T12:09:40;101429.16;;;10.00;46.04
39954;BME280;25631;51.516;-0.470;2023-03-20T12:12:26;101428.16;;;10.22;46.34
39954;BME280;25631;51.516;-0.470;2023-03-20T12:15:15;101427.26;;;10.28;46.25
39954;BME280;25631;51.516;-0.470;2023-03-20T12:17:55;101426.64;;;9.87;46.84
39954;BME280;25631;51.516;-0.470;2023-03-20T12:20:37;101430.17;;;10.19;46.36
39954;BME280;25631;51.516;-0.470;2023-03-20T12:23:27;101435.88;;;10.28;46.48
39954;BME280;25631;51.516;-0.470;2023-03-20T12:26:11;101432.00;;;10.03;46.53
39954;BME280;25631;51.516;-0.470;2023-03-20T12:28:53;101435.10;;;10.23;46.48
39954;BME280;25631;51.516;-0.470;2023-03-20T12:31:38;101431.80;;;10.13;46.40
39954;BME280;25631;51.516;-0.470;2023-03-20T12:34:19;101432.46;;;10.09;46.44
39954;BME280;25631;51.516;-0.470;2023-03-20T12:36:56;101425.77;;;10.02;46.25
39954;BME280;25631;51.516;-0.470;2023-03-20T12:39:36;101422.00;;;10.54;46.16
39954;BME280;25631;51.516;-0.470;2023-03-20T12:42:19;101415.92;;;10.50;46.03
39954;BME280;25631;51.516;-0.470;2023-03-20T12:45:07;101415.96;;;10.38;45.88
39954;BME280;25631;51.516;-0.470;2023-03-20T12:47:56;101410.82;;;10.49;45.89
39954;BME280;25631;51.516;-0.470;2023-03-20T12:50:38;101403.89;;;10.60;46.05
39954;BME280;25631;51.516;-0.470;2023-03-20T12:53:27;101397.63;;;10.67;45.77
39954;BME280;25631;51.516;-0.470;2023-03-20T12:56:20;101398.65;;;10.33;45.61
39954;BME280;25631;51.516;-0.470;2023-03-20T12:59:07;101391.43;;;10.66;45.31
39954;BME280;25631;51.516;-0.470;2023-03-20T13:01:51;101390.69;;;10.63;45.18
39954;BME280;25631;51.516;-0.470;2023-03-20T13:04:44;101388.65;;;10.67;45.26
39954;BME280;25631;51.516;-0.470;2023-03-20T13:07:29;101387.70;;;10.89;45.07
39954;BME280;25631;51.516;-0.470;2023-03-20T13:10:19;101391.48;;;10.76;44.92
39954;BME280;25631;51.516;-0.470;2023-03-20T13:13:04;101394.38;;;10.71;44.84
39954;BME280;25631;51.516;-0.470;2023-03-20T13:15:55;101392.02;;;10.57;45.11
39954;BME280;25631;51.516;-0.470;2023-03-20T13:18:47;101386.76;;;10.64;45.25
39954;BME280;25631;51.516;-0.470;2023-03-20T13:21:31;101388.53;;;10.33;45.32
39954;BME280;25631;51.516;-0.470;2023-03-20T13:24:20;101389.14;;;10.53;45.36
39954;BME280;25631;51.516;-0.470;2023-03-20T13:27:13;101385.13;;;10.65;45.13
39954;BME280;25631;51.516;-0.470;2023-03-20T13:29:55;101379.73;;;10.93;44.82
39954;BME280;25631;51.516;-0.470;2023-03-20T13:32:45;101375.36;;;11.12;44.60
39954;BME280;25631;51.516;-0.470;2023-03-20T13:35:35;101375.79;;;11.28;44.37
39954;BME280;25631;51.516;-0.470;2023-03-20T13:38:18;101375.38;;;11.05;44.39
39954;BME280;25631;51.516;-0.470;2023-03-20T13:41:00;101373.30;;;10.93;44.54
39954;BME280;25631;51.516;-0.470;2023-03-20T13:43:40;101366.92;;;11.28;44.39
39954;BME280;25631;51.516;-0.470;2023-03-20T13:46:21;101365.69;;;10.97;44.43
39954;BME280;25631;51.516;-0.470;2023-03-20T13:49:04;101368.68;;;10.99;44.46
39954;BME280;25631;51.516;-0.470;2023-03-20T13:51:47;101358.04;;;10.89;44.50
39954;BME280;25631;51.516;-0.470;2023-03-20T13:54:37;101354.86;;;10.82;44.49
39954;BME280;25631;51.516;-0.470;2023-03-20T13:57:24;101353.24;;;10.72;44.53
39954;BME280;25631;51.516;-0.470;2023-03-20T14:00:09;101356.18;;;10.52;44.64